createdAt,value
2018-02-24T00:01:11.606Z,93.60
2018-02-24T00:06:14.897Z,93.70
2018-02-24T00:11:22.473Z,93.80
2018-02-24T00:16:26.906Z,93.90
2018-02-24T00:21:32.002Z,93.80
2018-02-24T00:26:35.837Z,93.70
2018-02-24T00:31:42.468Z,93.70
2018-02-24T00:36:45.725Z,93.70
2018-02-24T00:41:51.149Z,93.70
2018-02-24T00:46:54.665Z,93.70
2018-02-24T00:52:02.017Z,93.50
2018-02-24T00:57:05.419Z,93.20
2018-02-24T01:02:08.952Z,93.40
2018-02-24T01:07:12.255Z,93.10
2018-02-24T01:12:16.958Z,93.30
2018-02-24T01:17:20.701Z,92.80
2018-02-24T01:22:27.067Z,92.90
2018-02-24T01:27:30.901Z,93.10
2018-02-24T01:32:38.742Z,93.10
2018-02-24T01:37:42.965Z,93.00
2018-02-24T01:42:49.933Z,92.90
2018-02-24T01:47:53.301Z,92.40
2018-02-24T01:53:01.078Z,92.50
2018-02-24T01:58:05.229Z,93.20
2018-02-24T02:03:12.866Z,93.40
2018-02-24T02:08:16.989Z,93.60
2018-02-24T02:13:23.497Z,93.40
2018-02-24T02:18:26.998Z,94.00
2018-02-24T02:23:31.626Z,94.40
2018-02-24T02:28:35.392Z,94.30
2018-02-24T02:33:43.992Z,94.60
2018-02-24T02:38:47.366Z,93.50
2018-02-24T02:43:54.098Z,93.70
2018-02-24T02:48:58.166Z,93.80
2018-02-24T02:54:02.731Z,94.70
2018-02-24T02:59:06.283Z,95.30
2018-02-24T03:04:12.857Z,95.40
2018-02-24T03:09:16.207Z,95.60
2018-02-24T03:14:22.745Z,95.80
2018-02-24T03:19:26.264Z,95.50
2018-02-24T03:24:34.046Z,96.20
2018-02-24T03:29:38.348Z,96.00
2018-02-24T03:34:41.929Z,96.20
2018-02-24T03:39:45.657Z,95.70
2018-02-24T03:44:49.129Z,95.60
2018-02-24T03:49:54.324Z,95.70
2018-02-24T03:54:58.362Z,95.70
2018-02-24T04:00:02.797Z,96.00
2018-02-24T04:05:06.904Z,96.60
2018-02-24T04:10:10.994Z,95.50
2018-02-24T04:15:14.423Z,95.60
2018-02-24T04:20:20.951Z,95.90
2018-02-24T04:25:24.326Z,95.70
2018-02-24T04:30:27.769Z,95.30
2018-02-24T04:35:32.162Z,95.80
2018-02-24T04:40:36.033Z,95.80
2018-02-24T04:45:40.384Z,95.60
2018-02-24T04:50:44.778Z,95.80
2018-02-24T04:55:48.282Z,95.80
2018-02-24T05:00:52.025Z,94.90
2018-02-24T05:05:55.320Z,95.30
2018-02-24T05:10:58.968Z,95.00
2018-02-24T05:16:02.533Z,94.70
2018-02-24T05:21:07.272Z,95.60
2018-02-24T05:26:11.414Z,95.20
2018-02-24T05:31:15.305Z,95.10
2018-02-24T05:36:18.646Z,95.40
2018-02-24T05:41:22.264Z,94.90
2018-02-24T05:46:25.709Z,94.60
2018-02-24T05:51:30.182Z,95.00
2018-02-24T05:56:33.710Z,95.00
2018-02-24T06:01:37.264Z,94.90
2018-02-24T06:06:41.526Z,94.80
2018-02-24T06:11:49.293Z,93.60
2018-02-24T06:16:52.639Z,92.70
2018-02-24T06:21:57.120Z,94.20
2018-02-24T06:27:01.323Z,94.20
2018-02-24T06:32:06.449Z,92.40
2018-02-24T06:37:10.405Z,92.40
2018-02-24T06:42:14.661Z,92.90
2018-02-24T06:47:18.916Z,93.30
2018-02-24T06:52:25.664Z,92.80
2018-02-24T06:57:30.220Z,93.00
2018-02-24T07:02:35.447Z,92.60
2018-02-24T07:07:39.085Z,93.30
2018-02-24T07:12:45.717Z,92.60
2018-02-24T07:17:49.025Z,92.30
2018-02-24T07:22:52.468Z,92.00
2018-02-24T07:27:56.094Z,94.80
2018-02-24T07:32:59.496Z,95.50
2018-02-24T07:38:02.983Z,95.50
2018-02-24T07:43:09.513Z,95.40
2018-02-24T07:48:13.318Z,95.00
2018-02-24T07:53:18.142Z,94.20
2018-02-24T07:58:21.905Z,94.60
2018-02-24T08:03:26.162Z,94.90
2018-02-24T08:08:29.618Z,94.50
2018-02-24T08:13:36.193Z,94.50
2018-02-24T08:18:39.651Z,94.40
2018-02-24T08:23:46.218Z,94.10
2018-02-24T08:28:50.641Z,94.30
2018-02-24T08:33:54.916Z,94.60
2018-02-24T08:39:07.846Z,94.50
2018-02-24T08:44:12.158Z,94.10
2018-02-24T08:49:19.974Z,94.20
2018-02-24T08:54:23.315Z,94.20
2018-02-24T08:59:32.053Z,93.40
2018-02-24T09:04:36.208Z,93.70
2018-02-24T09:09:40.885Z,92.90
2018-02-24T09:14:44.656Z,92.90
2018-02-24T09:19:48.293Z,92.20
2018-02-24T09:24:51.605Z,92.00
2018-02-24T09:29:58.762Z,91.60
2018-02-24T09:35:02.885Z,90.70
2018-02-24T09:40:07.082Z,91.00
2018-02-24T09:45:11.147Z,91.10
2018-02-24T09:50:14.925Z,91.20
2018-02-24T09:55:18.474Z,91.20
2018-02-24T10:00:26.638Z,91.40
2018-02-24T10:05:30.391Z,91.60
2018-02-24T10:10:40.126Z,92.30
2018-02-24T10:15:43.670Z,91.80
2018-02-24T10:20:50.746Z,92.40
2018-02-24T10:25:54.133Z,92.90
2018-02-24T10:30:58.746Z,92.70
2018-02-24T10:36:02.158Z,92.60
2018-02-24T10:41:09.117Z,91.90
2018-02-24T10:46:14.126Z,92.50
2018-02-24T10:51:18.313Z,92.50
2018-02-24T10:56:21.769Z,93.20
2018-02-24T11:01:25.467Z,93.70
2018-02-24T11:06:29.182Z,92.80
2018-02-24T11:11:34.634Z,92.60
2018-02-24T11:16:38.972Z,92.60
2018-02-24T11:21:45.872Z,93.40
2018-02-24T11:26:49.290Z,93.10
2018-02-24T11:31:56.384Z,94.40
2018-02-24T11:36:59.914Z,93.90
2018-02-24T11:42:07.209Z,94.20
2018-02-24T11:47:11.254Z,94.40
2018-02-24T11:52:17.317Z,95.20
2018-02-24T11:57:21.029Z,95.20
2018-02-24T12:02:29.630Z,95.10
2018-02-24T12:07:33.300Z,95.50
2018-02-24T12:12:38.036Z,95.30
2018-02-24T12:17:42.028Z,95.10
2018-02-24T12:22:45.658Z,95.20
2018-02-24T12:27:49.190Z,95.40
2018-02-24T12:32:56.058Z,94.60
2018-02-24T12:38:00.254Z,94.90
2018-02-24T12:43:07.054Z,94.90
2018-02-24T12:48:10.402Z,94.80
2018-02-24T12:53:15.431Z,95.30
2018-02-24T12:58:19.769Z,94.90
2018-02-24T13:03:24.059Z,94.60
2018-02-24T13:08:29.215Z,94.10
2018-02-24T13:13:33.462Z,93.30
2018-02-24T13:18:38.794Z,93.30
2018-02-24T13:23:42.434Z,93.60
2018-02-24T13:28:50.297Z,94.40
2018-02-24T13:33:54.046Z,94.60
2018-02-24T13:39:00.739Z,94.70
2018-02-24T13:44:05.171Z,94.70
2018-02-24T13:49:09.607Z,94.90
2018-02-24T13:54:13.271Z,94.90
2018-02-24T13:59:18.029Z,95.30
2018-02-24T14:04:22.157Z,95.20
2018-02-24T14:09:29.870Z,95.50
2018-02-24T14:14:33.202Z,95.60
2018-02-24T14:19:37.874Z,95.80
2018-02-24T14:24:41.430Z,96.00
2018-02-24T14:29:45.165Z,96.10
2018-02-24T14:34:49.254Z,95.60
2018-02-24T14:39:53.196Z,96.10
2018-02-24T14:44:56.939Z,95.70
2018-02-24T14:50:04.555Z,95.70
2018-02-24T14:55:08.707Z,95.60
2018-02-24T15:00:16.058Z,95.60
2018-02-24T15:05:20.139Z,95.50
2018-02-24T15:10:25.087Z,95.40
2018-02-24T15:15:28.775Z,95.30
2018-02-24T15:20:33.545Z,95.40
2018-02-24T15:25:37.352Z,95.30
2018-02-24T15:30:43.150Z,95.30
2018-02-24T15:35:47.789Z,95.10
2018-02-24T15:40:51.708Z,95.60
2018-02-24T15:45:55.006Z,95.10
2018-02-24T15:51:02.119Z,95.60
2018-02-24T15:56:06.703Z,95.50
2018-02-24T16:01:14.126Z,95.80
2018-02-24T16:06:18.040Z,96.30
2018-02-24T16:11:22.358Z,96.50
2018-02-24T16:16:25.790Z,96.50
2018-02-24T16:21:34.407Z,96.60
2018-02-24T16:26:37.661Z,96.60
2018-02-24T16:31:42.715Z,96.10
2018-02-24T16:36:46.265Z,96.10
2018-02-24T16:41:50.197Z,96.90
2018-02-24T16:46:53.670Z,96.50
2018-02-24T16:52:00.482Z,96.40
2018-02-24T16:57:03.810Z,97.30
2018-02-24T17:02:09.011Z,97.60
2018-02-24T17:07:12.540Z,97.60
2018-02-24T17:12:20.030Z,97.90
2018-02-24T17:17:24.177Z,97.90
2018-02-24T17:22:28.926Z,97.80
2018-02-24T17:27:33.085Z,97.70
2018-02-24T17:32:36.645Z,97.80
2018-02-24T17:37:40.611Z,97.40
2018-02-24T17:42:44.594Z,97.70
2018-02-24T17:47:49.531Z,97.80
2018-02-24T17:52:53.087Z,97.70
2018-02-24T17:58:01.387Z,97.90
2018-02-24T18:03:05.270Z,97.80
2018-02-24T18:08:09.650Z,97.60
2018-02-24T18:13:13.194Z,98.00
2018-02-24T18:18:17.467Z,97.70
2018-02-24T18:23:21.026Z,97.60
2018-02-24T18:28:25.150Z,97.30
2018-02-24T18:33:29.443Z,97.70
2018-02-24T18:38:34.205Z,97.70
2018-02-24T18:43:37.711Z,97.50
2018-02-24T18:48:41.760Z,97.50
2018-02-24T18:53:46.070Z,97.90
2018-02-24T18:58:49.959Z,97.70
2018-02-24T19:03:53.582Z,97.50
2018-02-24T19:08:57.494Z,97.60
2018-02-24T19:14:01.476Z,97.50
2018-02-24T19:19:06.187Z,97.50
2018-02-24T19:24:09.718Z,97.10
2018-02-24T19:29:13.775Z,96.90
2018-02-24T19:34:17.484Z,96.90
2018-02-24T19:39:25.614Z,97.00
2018-02-24T19:44:30.658Z,96.80
2018-02-24T19:49:42.172Z,96.30
2018-02-24T19:54:47.451Z,96.30
2018-02-24T19:59:51.533Z,96.00
2018-02-24T20:04:54.790Z,95.90
2018-02-24T20:09:58.758Z,95.90
2018-02-24T20:15:02.065Z,95.90
2018-02-24T20:20:05.594Z,95.70
2018-02-24T20:25:09.253Z,95.70
2018-02-24T20:30:13.768Z,95.80
2018-02-24T20:35:18.046Z,95.50
2018-02-24T20:40:22.294Z,95.40
2018-02-24T20:45:26.238Z,95.40
2018-02-24T20:50:30.943Z,95.90
2018-02-24T20:55:34.893Z,95.30
2018-02-24T21:00:41.661Z,95.50
2018-02-24T21:05:45.931Z,95.70
2018-02-24T21:10:50.332Z,95.10
2018-02-24T21:15:54.518Z,95.20
2018-02-24T21:20:58.149Z,95.00
2018-02-24T21:26:02.245Z,94.90
2018-02-24T21:31:06.766Z,94.90
2018-02-24T21:36:10.670Z,94.90
2018-02-24T21:41:14.942Z,94.70
2018-02-24T21:46:18.919Z,94.70
2018-02-24T21:51:22.592Z,94.40
2018-02-24T21:56:26.681Z,94.40
2018-02-24T22:01:30.983Z,94.40
2018-02-24T22:06:35.147Z,94.80
2018-02-24T22:11:38.979Z,94.40
2018-02-24T22:16:42.577Z,94.60
2018-02-24T22:21:50.518Z,94.50
2018-02-24T22:26:54.207Z,94.30
2018-02-24T22:32:07.149Z,94.30
2018-02-24T22:37:11.868Z,94.20
2018-02-24T22:42:15.350Z,94.40
2018-02-24T22:47:19.122Z,94.10
2018-02-24T22:52:23.500Z,94.30
2018-02-24T22:57:27.419Z,94.30
2018-02-24T23:02:30.741Z,94.20
2018-02-24T23:07:35.906Z,94.40
2018-02-24T23:12:39.394Z,94.30
2018-02-24T23:17:42.876Z,94.10
2018-02-24T23:22:46.259Z,94.30
2018-02-24T23:27:49.753Z,94.60
2018-02-24T23:32:53.855Z,94.30
2018-02-24T23:37:58.543Z,94.00
2018-02-24T23:43:02.173Z,93.90
2018-02-24T23:48:05.944Z,94.20
2018-02-24T23:53:10.278Z,93.70
2018-02-24T23:58:13.910Z,94.20
